createdAt,value
2023-03-29T00:04:59.578Z,84.79
2023-03-29T00:17:00.079Z,82.13
2023-03-29T00:29:00.563Z,81.72
2023-03-29T00:41:01.374Z,84.87
2023-03-29T00:53:01.385Z,86.86
2023-03-29T01:17:02.378Z,80.65
2023-03-29T01:29:04.966Z,84.84
2023-03-29T01:41:03.672Z,87.23
2023-03-29T01:53:03.662Z,81.35
2023-03-29T02:05:04.124Z,85.70
2023-03-29T02:17:04.553Z,87.80
2023-03-29T02:29:05.010Z,85.38
2023-03-29T02:41:05.411Z,82.11
2023-03-29T02:53:05.875Z,81.10
2023-03-29T03:05:06.365Z,81.57
2023-03-29T03:17:06.819Z,80.98
2023-03-29T03:29:07.208Z,85.34
2023-03-29T03:41:07.739Z,83.42
2023-03-29T03:53:08.184Z,86.69
2023-03-29T04:05:08.581Z,84.35
2023-03-29T04:17:09.052Z,87.52
2023-03-29T04:29:09.524Z,86.87
2023-03-29T04:41:09.957Z,87.49
2023-03-29T04:53:10.411Z,83.35
2023-03-29T05:05:10.859Z,84.25
2023-03-29T05:17:11.304Z,85.54
2023-03-29T05:29:11.750Z,85.96
2023-03-29T05:41:12.202Z,85.85
2023-03-29T05:53:12.658Z,84.71
2023-03-29T06:05:13.120Z,84.67
2023-03-29T06:17:13.692Z,83.67
2023-03-29T06:29:13.993Z,79.63
2023-03-29T06:41:14.495Z,78.12
2023-03-29T06:53:14.908Z,72.62
2023-03-29T07:05:15.383Z,59.98
2023-03-29T07:17:15.805Z,50.02
2023-03-29T07:29:16.292Z,49.14
2023-03-29T07:41:16.721Z,47.80
2023-03-29T07:53:17.194Z,48.92
2023-03-29T08:05:29.234Z,48.93
2023-03-29T08:17:18.055Z,44.96
2023-03-29T08:29:18.616Z,44.93
2023-03-29T08:41:19.012Z,45.59
2023-03-29T08:53:19.440Z,44.79
2023-03-29T09:05:19.878Z,43.25
2023-03-29T09:17:20.455Z,45.40
2023-03-29T09:29:20.805Z,42.97
2023-03-29T09:41:21.228Z,39.42
2023-03-29T09:53:21.703Z,38.92
2023-03-29T10:05:22.159Z,40.98
2023-03-29T10:17:22.609Z,39.81
2023-03-29T10:29:23.034Z,40.66
2023-03-29T10:41:23.494Z,40.64
2023-03-29T10:53:23.978Z,41.50
2023-03-29T11:05:24.432Z,40.52
2023-03-29T11:17:24.886Z,41.54
2023-03-29T11:29:25.327Z,41.00
2023-03-29T11:41:25.737Z,42.89
2023-03-29T11:53:26.199Z,38.00
2023-03-29T12:05:26.647Z,41.55
2023-03-29T12:17:27.126Z,37.32
2023-03-29T12:29:27.577Z,36.76
2023-03-29T12:41:28.030Z,40.14
2023-03-29T12:53:28.474Z,38.99
2023-03-29T13:05:28.975Z,39.36
2023-03-29T13:17:29.378Z,37.84
2023-03-29T13:29:29.843Z,37.06
2023-03-29T13:41:33.078Z,39.80
2023-03-29T13:53:30.882Z,38.69
2023-03-29T14:05:31.194Z,40.54
2023-03-29T14:17:31.738Z,42.30
2023-03-29T14:29:32.179Z,41.13
2023-03-29T14:41:32.577Z,42.08
2023-03-29T14:53:33.005Z,39.70
2023-03-29T15:05:33.509Z,42.73
2023-03-29T15:17:49.447Z,43.49
2023-03-29T15:29:34.352Z,44.61
2023-03-29T15:41:34.799Z,44.46
2023-03-29T15:53:35.328Z,44.39
2023-03-29T16:05:35.726Z,44.73
2023-03-29T16:17:36.227Z,48.39
2023-03-29T16:29:36.640Z,49.18
2023-03-29T16:41:37.116Z,51.04
2023-03-29T16:53:37.513Z,52.46
2023-03-29T17:05:37.995Z,55.38
2023-03-29T17:17:38.481Z,55.19
2023-03-29T17:29:38.902Z,57.01
2023-03-29T17:41:39.329Z,57.58
2023-03-29T17:53:39.793Z,62.36
2023-03-29T18:05:40.336Z,59.75
2023-03-29T18:17:40.732Z,60.40
2023-03-29T18:29:41.287Z,61.28
2023-03-29T18:41:41.610Z,62.39
2023-03-29T18:53:42.085Z,60.99
2023-03-29T19:05:45.261Z,59.48
2023-03-29T19:17:45.709Z,61.92
2023-03-29T19:29:43.404Z,61.31
2023-03-29T19:41:43.857Z,60.96
2023-03-29T19:53:46.545Z,65.05
2023-03-29T20:05:44.791Z,64.64
2023-03-29T20:17:45.378Z,65.36
2023-03-29T20:29:45.682Z,64.50
2023-03-29T20:41:48.846Z,65.45
2023-03-29T20:53:46.673Z,65.24
2023-03-29T21:05:47.047Z,58.97
2023-03-29T21:17:49.769Z,58.29
2023-03-29T21:29:47.945Z,52.92
2023-03-29T21:41:48.362Z,52.54
2023-03-29T21:53:48.833Z,51.74
2023-03-29T22:05:49.289Z,53.20
2023-03-29T22:17:49.783Z,54.08
2023-03-29T22:29:50.291Z,54.88
2023-03-29T22:41:50.653Z,57.81
2023-03-29T22:53:51.081Z,56.68
2023-03-29T23:05:51.617Z,59.82
2023-03-29T23:17:52.057Z,61.00
2023-03-29T23:29:52.433Z,61.89
2023-03-29T23:41:53.027Z,62.98
2023-03-29T23:53:53.501Z,65.41
